Time;durP1;ratioP1;P1;durP2;ratioP2;P2;SDS_P1;SDS_P2;PMS_P1;PMS_P2;Temp;Humidity;BMP_temperature;BMP_pressure;BME280_temperature;BME280_humidity;BME280_pressure;Samples;Min_cycle;Max_cycle;Signal;HPM_P1;HPM_P2
2021/11/24 00:01:08;;;;;;;41.47;23.90;;;1.90;99.90;;;;;;5019132;28;20540;-92
2021/11/24 00:03:34;;;;;;;38.97;23.73;;;1.90;99.90;;;;;;5038347;28;20217;-91
2021/11/24 00:05:59;;;;;;;37.83;22.87;;;1.90;99.90;;;;;;5021639;28;20186;-91
2021/11/24 00:08:25;;;;;;;42.80;23.10;;;1.90;99.90;;;;;;5022163;28;20208;-90
2021/11/24 00:10:51;;;;;;;40.90;23.80;;;1.80;99.90;;;;;;5020614;28;20317;-90
2021/11/24 00:13:17;;;;;;;45.23;26.50;;;1.80;99.90;;;;;;5042894;28;20179;-91
2021/11/24 00:15:42;;;;;;;70.00;31.70;;;1.70;99.90;;;;;;5022387;28;20526;-90
2021/11/24 00:18:09;;;;;;;48.67;25.57;;;1.70;99.90;;;;;;5020152;28;20267;-91
2021/11/24 00:20:35;;;;;;;53.42;25.40;;;1.70;99.90;;;;;;5023102;28;20175;-91
2021/11/24 00:23:00;;;;;;;36.22;21.55;;;1.60;99.90;;;;;;5022342;28;20206;-91
2021/11/24 00:25:26;;;;;;;46.23;25.40;;;1.50;99.90;;;;;;5043393;28;20182;-89
2021/11/24 00:27:52;;;;;;;41.43;23.87;;;1.50;99.90;;;;;;5027479;28;20194;-89
2021/11/24 00:30:17;;;;;;;45.30;26.63;;;1.40;99.90;;;;;;5040975;28;20174;-91
2021/11/24 00:32:43;;;;;;;40.10;26.20;;;1.40;99.90;;;;;;5023709;28;20309;-90
2021/11/24 00:35:09;;;;;;;62.03;27.80;;;1.40;99.90;;;;;;5020445;28;20248;-90
2021/11/24 00:37:35;;;;;;;47.17;26.47;;;1.30;99.90;;;;;;5020526;28;20203;-91
2021/11/24 00:40:01;;;;;;;39.83;24.10;;;1.20;99.90;;;;;;5022687;28;20416;-90
2021/11/24 00:42:27;;;;;;;54.47;25.65;;;1.10;99.90;;;;;;5037820;28;20244;-90
2021/11/24 00:44:52;;;;;;;49.00;26.67;;;1.10;99.90;;;;;;5021872;28;20179;-89
2021/11/24 00:47:18;;;;;;;47.10;27.00;;;1.10;99.90;;;;;;5037586;28;20198;-90
2021/11/24 00:49:44;;;;;;;51.00;26.33;;;1.10;99.90;;;;;;5020270;28;20189;-89
2021/11/24 00:52:10;;;;;;;45.10;24.60;;;1.10;99.90;;;;;;5019631;28;20237;-90
2021/11/24 00:54:36;;;;;;;39.60;22.20;;;1.00;99.90;;;;;;5019623;28;20273;-90
2021/11/24 00:57:03;;;;;;;40.92;23.15;;;0.90;99.90;;;;;;5019778;28;20665;-90
2021/11/24 00:59:29;;;;;;;33.00;21.25;;;0.90;99.90;;;;;;5022652;28;20178;-90
2021/11/24 01:01:55;;;;;;;34.97;22.00;;;0.90;99.90;;;;;;5037253;28;20190;-90
2021/11/24 01:04:20;;;;;;;33.10;21.13;;;0.90;99.90;;;;;;5037689;28;20179;-89
2021/11/24 01:06:46;;;;;;;36.40;21.90;;;1.00;99.90;;;;;;5021235;28;20206;-88
2021/11/24 01:09:12;;;;;;;34.87;22.80;;;1.00;99.90;;;;;;5020537;28;20183;-90
2021/11/24 01:11:38;;;;;;;38.50;21.60;;;1.10;99.90;;;;;;5043329;28;20641;-91
2021/11/24 01:14:04;;;;;;;34.80;21.35;;;1.10;99.90;;;;;;5039098;28;20425;-90
2021/11/24 01:16:30;;;;;;;33.07;21.33;;;1.20;99.90;;;;;;5019348;28;20652;-90
2021/11/24 01:18:57;;;;;;;36.72;20.80;;;1.20;99.90;;;;;;5036829;28;20494;-90
2021/11/24 01:21:22;;;;;;;30.05;20.13;;;1.20;99.90;;;;;;5036632;28;20198;-89
2021/11/24 01:23:48;;;;;;;35.73;20.50;;;1.20;99.90;;;;;;5019601;28;20603;-88
2021/11/24 01:26:15;;;;;;;32.20;19.77;;;1.20;99.90;;;;;;5019489;28;20462;-90
2021/11/24 01:28:41;;;;;;;32.97;19.33;;;1.20;99.90;;;;;;5019475;28;20185;-89
2021/11/24 01:31:07;;;;;;;29.80;20.15;;;1.20;99.90;;;;;;5019186;28;20210;-90
2021/11/24 01:33:33;;;;;;;32.47;19.70;;;1.20;99.90;;;;;;5036945;28;20201;-89
2021/11/24 01:35:59;;;;;;;34.92;20.83;;;1.20;99.90;;;;;;5018769;28;20758;-90
2021/11/24 01:38:26;;;;;;;29.08;20.50;;;1.10;99.90;;;;;;5019893;28;20256;-89
2021/11/24 01:40:52;;;;;;;33.33;21.42;;;1.10;99.90;;;;;;5019228;28;20236;-89
2021/11/24 01:43:18;;;;;;;34.40;20.90;;;1.00;99.90;;;;;;5018832;28;20186;-89
2021/11/24 01:45:44;;;;;;;27.77;20.57;;;1.00;99.90;;;;;;5036291;28;20220;-89
2021/11/24 01:48:09;;;;;;;29.63;20.00;;;0.90;99.90;;;;;;5037045;28;20190;-89
2021/11/24 01:50:35;;;;;;;28.70;18.90;;;0.90;99.90;;;;;;5019685;28;20213;-89
2021/11/24 01:53:01;;;;;;;30.57;20.57;;;0.80;99.90;;;;;;5036913;28;20526;-89
2021/11/24 01:55:27;;;;;;;34.92;21.42;;;0.90;99.90;;;;;;5021806;28;20175;-89
2021/11/24 01:57:53;;;;;;;29.33;20.70;;;0.90;99.90;;;;;;5020984;28;20213;-89
2021/11/24 02:00:26;;;;;;;29.35;18.88;;;0.90;99.90;;;;;;5022533;28;20249;-90
2021/11/24 02:02:51;;;;;;;32.53;18.95;;;0.80;99.90;;;;;;5046136;28;20691;-89
2021/11/24 02:05:17;;;;;;;32.93;20.97;;;0.80;99.90;;;;;;5018783;28;20175;-90
2021/11/24 02:07:43;;;;;;;35.55;21.08;;;0.80;99.90;;;;;;5035995;28;20199;-89
2021/11/24 02:10:10;;;;;;;25.27;17.97;;;0.80;99.90;;;;;;5019084;28;20183;-89
2021/11/24 02:12:37;;;;;;;32.72;19.27;;;0.80;99.90;;;;;;5018128;28;20309;-90
2021/11/24 02:15:04;;;;;;;29.15;18.90;;;0.80;99.90;;;;;;5018417;28;20640;-89
2021/11/24 02:17:30;;;;;;;30.92;17.90;;;0.80;99.90;;;;;;5019332;28;20700;-89
2021/11/24 02:19:56;;;;;;;30.93;18.33;;;0.80;99.90;;;;;;5032196;28;20238;-90
2021/11/24 02:22:22;;;;;;;27.83;18.63;;;0.70;99.90;;;;;;5018233;28;20209;-89
2021/11/24 02:24:47;;;;;;;26.90;18.38;;;0.70;99.90;;;;;;5018145;28;20175;-89
2021/11/24 02:27:14;;;;;;;29.00;19.30;;;0.70;99.90;;;;;;5018704;28;20202;-89
2021/11/24 02:29:44;;;;;;;32.15;18.23;;;0.70;99.90;;;;;;5018468;28;20183;-89
2021/11/24 02:32:10;;;;;;;30.63;19.10;;;0.70;99.90;;;;;;5017883;28;20226;-89
2021/11/24 02:34:36;;;;;;;30.85;18.98;;;0.80;99.90;;;;;;5018147;28;20182;-89
2021/11/24 02:37:02;;;;;;;28.75;19.13;;;0.70;99.90;;;;;;5036684;28;20287;-89
2021/11/24 02:39:29;;;;;;;27.88;18.27;;;0.70;99.90;;;;;;5030358;28;20210;-89
2021/11/24 02:41:55;;;;;;;38.03;21.10;;;0.80;99.90;;;;;;5018803;28;20217;-89
2021/11/24 02:44:30;;;;;;;30.80;20.23;;;0.70;99.90;;;;;;5035253;28;20582;-89
2021/11/24 02:47:12;;;;;;;34.25;23.17;;;0.70;99.90;;;;;;5035205;28;20364;-89
2021/11/24 02:49:44;;;;;;;31.77;20.90;;;0.60;99.90;;;;;;5017782;28;20194;-90
2021/11/24 02:52:10;;;;;;;33.58;20.83;;;0.60;99.90;;;;;;5017449;28;20264;-89
2021/11/24 02:54:36;;;;;;;31.15;20.42;;;0.60;99.90;;;;;;5018042;28;20594;-90
2021/11/24 02:57:05;;;;;;;37.13;21.38;;;0.50;99.90;;;;;;5017822;28;20210;-88
2021/11/24 02:59:31;;;;;;;29.35;21.00;;;0.50;99.90;;;;;;5017664;28;20233;-89
2021/11/24 03:01:56;;;;;;;29.70;21.10;;;0.50;99.90;;;;;;5017765;28;20222;-90
2021/11/24 03:04:30;;;;;;;35.97;23.10;;;0.40;99.90;;;;;;5035259;28;20190;-89
2021/11/24 03:06:57;;;;;;;38.20;23.67;;;0.40;99.90;;;;;;5018329;28;20199;-90
2021/11/24 03:09:23;;;;;;;45.92;26.77;;;0.40;99.90;;;;;;5025819;28;20182;-90
2021/11/24 03:11:49;;;;;;;43.50;26.60;;;0.40;99.90;;;;;;5017715;28;20218;-90
2021/11/24 03:14:15;;;;;;;38.53;23.47;;;0.40;99.90;;;;;;5035616;28;20663;-89
2021/11/24 03:16:40;;;;;;;31.47;20.57;;;0.40;99.90;;;;;;5033604;28;20440;-90
2021/11/24 03:19:06;;;;;;;32.93;20.90;;;0.40;99.90;;;;;;5034531;28;20231;-90
2021/11/24 03:21:31;;;;;;;33.73;20.70;;;0.40;99.90;;;;;;5034783;28;20198;-89
2021/11/24 03:23:57;;;;;;;29.63;19.80;;;0.40;99.90;;;;;;5036418;28;20174;-90
2021/11/24 03:26:23;;;;;;;32.90;20.53;;;0.40;99.90;;;;;;5035092;28;20198;-90
2021/11/24 03:28:49;;;;;;;33.83;20.60;;;0.50;99.90;;;;;;5017649;28;20232;-90
2021/11/24 03:31:14;;;;;;;35.20;21.27;;;0.50;99.90;;;;;;5034568;28;20226;-90
2021/11/24 03:33:40;;;;;;;34.93;20.83;;;0.50;99.90;;;;;;5035915;28;20178;-89
2021/11/24 03:36:05;;;;;;;25.97;19.90;;;0.50;99.90;;;;;;5044646;28;20179;-90
2021/11/24 03:38:31;;;;;;;31.13;19.90;;;0.50;99.90;;;;;;5022723;28;20174;-90
2021/11/24 03:40:57;;;;;;;32.20;19.27;;;0.40;99.90;;;;;;5038736;28;20190;-90
2021/11/24 03:43:23;;;;;;;32.63;19.33;;;0.40;99.90;;;;;;5021345;28;20552;-90
2021/11/24 03:45:49;;;;;;;28.90;19.27;;;0.40;99.90;;;;;;5021509;28;20420;-88
2021/11/24 03:48:14;;;;;;;32.07;20.20;;;0.40;99.90;;;;;;5021358;28;20186;-90
2021/11/24 03:50:40;;;;;;;32.63;20.63;;;0.40;99.90;;;;;;5038336;28;20570;-89
2021/11/24 03:53:06;;;;;;;30.13;20.30;;;0.40;99.90;;;;;;5040521;28;20459;-90
2021/11/24 03:55:32;;;;;;;35.57;20.80;;;0.40;99.90;;;;;;5021270;28;20189;-89
2021/11/24 03:57:59;;;;;;;31.37;19.10;;;0.40;99.90;;;;;;5021455;28;20608;-90
2021/11/24 04:00:26;;;;;;;32.63;20.08;;;0.40;99.90;;;;;;5021058;28;20182;-89
2021/11/24 04:02:52;;;;;;;28.90;19.30;;;0.40;99.90;;;;;;5023018;28;20202;-87
2021/11/24 04:05:18;;;;;;;29.33;19.40;;;0.40;99.90;;;;;;5023180;28;20183;-89
2021/11/24 04:07:44;;;;;;;32.90;20.30;;;0.40;99.90;;;;;;5023731;28;20266;-90
2021/11/24 04:10:11;;;;;;;28.63;18.90;;;0.40;99.90;;;;;;5038479;28;20404;-90
2021/11/24 04:12:41;;;;;;;26.42;18.75;;;0.40;99.90;;;;;;5024839;28;20218;-90
2021/11/24 04:15:09;;;;;;;34.80;20.80;;;0.40;99.90;;;;;;5035063;28;20183;-90
2021/11/24 04:17:35;;;;;;;31.33;20.77;;;0.30;99.90;;;;;;5029880;28;20575;-90
2021/11/24 04:20:01;;;;;;;34.23;20.13;;;0.30;99.90;;;;;;5041392;28;20254;-89
2021/11/24 04:22:27;;;;;;;36.33;21.48;;;0.30;99.90;;;;;;5038187;28;20444;-90
2021/11/24 04:24:52;;;;;;;27.23;18.60;;;0.30;99.90;;;;;;5020317;28;20591;-89
2021/11/24 04:27:19;;;;;;;32.60;19.73;;;0.20;99.90;;;;;;5037411;28;20655;-90
2021/11/24 04:29:45;;;;;;;36.63;22.08;;;0.20;99.90;;;;;;5020403;28;20175;-90
2021/11/24 04:32:11;;;;;;;50.97;23.77;;;0.20;99.90;;;;;;5022800;28;20223;-90
2021/11/24 04:34:39;;;;;;;39.33;24.08;;;0.10;99.90;;;;;;5020239;28;20178;-89
2021/11/24 04:37:04;;;;;;;40.72;22.20;;;0.10;99.90;;;;;;5037773;28;20205;-90
2021/11/24 04:39:33;;;;;;;41.47;23.50;;;0.20;99.90;;;;;;5037815;28;20163;-89
2021/11/24 04:41:59;;;;;;;40.25;22.67;;;0.20;99.90;;;;;;5037562;28;20218;-90
2021/11/24 04:44:25;;;;;;;37.80;21.87;;;0.10;99.90;;;;;;5037643;28;20236;-90
2021/11/24 04:46:51;;;;;;;37.30;23.47;;;0.10;99.90;;;;;;5027380;28;20241;-90
2021/11/24 04:49:16;;;;;;;36.63;23.00;;;0.00;99.90;;;;;;5051772;28;20217;-90
2021/11/24 04:51:43;;;;;;;38.53;24.40;;;0.00;99.90;;;;;;5019739;28;20507;-89
2021/11/24 04:54:08;;;;;;;46.47;23.85;;;-0.10;99.90;;;;;;5037453;28;20889;-89
2021/11/24 04:56:34;;;;;;;33.63;22.90;;;-0.10;99.90;;;;;;5037416;28;20289;-90
2021/11/24 04:59:02;;;;;;;41.97;22.73;;;-0.20;99.90;;;;;;5037095;28;20263;-90
2021/11/24 05:01:27;;;;;;;40.60;23.27;;;-0.20;99.90;;;;;;5037652;28;20193;-91
2021/11/24 05:03:53;;;;;;;40.70;23.70;;;-0.20;99.90;;;;;;5020508;28;20182;-91
2021/11/24 05:06:20;;;;;;;39.93;22.37;;;-0.20;99.90;;;;;;5020415;28;20675;-90
2021/11/24 05:08:47;;;;;;;40.10;23.10;;;-0.30;99.90;;;;;;5028710;28;20485;-90
2021/11/24 05:11:14;;;;;;;36.97;21.33;;;-0.20;99.90;;;;;;5046571;28;20210;-91
2021/11/24 05:13:47;;;;;;;39.35;23.13;;;-0.20;99.90;;;;;;5038667;28;20182;-90
2021/11/24 05:16:12;;;;;;;33.25;20.83;;;-0.20;99.90;;;;;;5045334;28;20206;-91
2021/11/24 05:18:42;;;;;;;38.20;20.87;;;-0.20;99.90;;;;;;5060563;28;20687;-90
2021/11/24 05:21:18;;;;;;;37.63;22.95;;;-0.20;99.90;;;;;;5039227;28;20206;-91
2021/11/24 05:23:44;;;;;;;40.17;23.83;;;-0.20;99.90;;;;;;5057728;28;20182;-89
2021/11/24 05:26:10;;;;;;;42.47;24.57;;;-0.20;99.90;;;;;;5039166;28;20197;-90
2021/11/24 05:28:36;;;;;;;39.60;23.65;;;-0.20;99.90;;;;;;5039397;28;20174;-90
2021/11/24 05:31:03;;;;;;;39.53;24.30;;;-0.20;99.90;;;;;;5040382;28;20213;-90
2021/11/24 05:33:29;;;;;;;40.75;22.35;;;-0.20;99.90;;;;;;5040596;28;20190;-90
2021/11/24 05:35:54;;;;;;;35.58;21.83;;;-0.20;99.90;;;;;;5038826;28;20223;-90
2021/11/24 05:38:20;;;;;;;32.93;21.20;;;-0.30;99.90;;;;;;5039237;28;20182;-90
2021/11/24 05:40:46;;;;;;;33.65;19.80;;;-0.30;99.90;;;;;;5039014;28;20228;-90
2021/11/24 05:43:14;;;;;;;33.30;21.60;;;-0.20;99.90;;;;;;5038753;28;20206;-90
2021/11/24 05:45:58;;;;;;;33.53;20.23;;;-0.30;99.90;;;;;;5043169;28;20479;-89
2021/11/24 05:48:25;;;;;;;36.90;20.45;;;-0.20;99.90;;;;;;5045283;28;20221;-90
2021/11/24 05:50:51;;;;;;;34.85;20.75;;;-0.20;99.90;;;;;;5056086;28;20170;-90
2021/11/24 05:53:19;;;;;;;41.78;22.05;;;-0.20;99.90;;;;;;5038675;28;20635;-90
2021/11/24 05:55:47;;;;;;;34.30;19.48;;;-0.10;99.90;;;;;;5056177;28;20560;-90
2021/11/24 05:58:14;;;;;;;36.53;19.85;;;0.00;99.90;;;;;;5053012;28;20248;-90
2021/11/24 06:00:41;;;;;;;42.88;24.67;;;0.10;99.90;;;;;;5053888;28;20200;-90
2021/11/24 06:03:07;;;;;;;42.10;24.65;;;0.10;99.90;;;;;;5034651;28;20206;-90
2021/11/24 06:05:33;;;;;;;41.92;26.08;;;0.20;99.90;;;;;;5034378;28;20177;-90
2021/11/24 06:07:59;;;;;;;42.28;24.83;;;0.20;99.90;;;;;;5039519;28;20561;-89
2021/11/24 06:10:24;;;;;;;47.70;28.00;;;0.30;99.90;;;;;;5037791;28;20442;-89
2021/11/24 06:12:50;;;;;;;143.03;69.77;;;0.40;99.90;;;;;;5059920;28;20241;-90
2021/11/24 06:15:16;;;;;;;135.60;73.67;;;0.40;99.90;;;;;;5043108;28;20396;-89
2021/11/24 06:17:43;;;;;;;236.23;144.75;;;0.40;99.90;;;;;;5042439;28;20450;-89
2021/11/24 06:20:10;;;;;;;131.07;85.20;;;0.30;99.90;;;;;;5063539;28;20284;-90
2021/11/24 06:22:40;;;;;;;52.92;34.03;;;0.30;99.90;;;;;;5054047;28;20198;-90
2021/11/24 06:25:07;;;;;;;45.58;27.00;;;0.20;99.90;;;;;;5053544;28;20181;-91
2021/11/24 06:27:33;;;;;;;57.88;41.05;;;0.20;99.90;;;;;;5035196;28;20420;-91
2021/11/24 06:29:59;;;;;;;62.50;39.37;;;0.10;99.90;;;;;;5032003;28;20178;-90
2021/11/24 06:32:27;;;;;;;52.27;33.53;;;0.00;99.90;;;;;;5031509;28;20487;-89
2021/11/24 06:34:52;;;;;;;54.10;32.70;;;-0.10;99.90;;;;;;5014322;28;20210;-89
2021/11/24 06:37:18;;;;;;;51.07;34.00;;;-0.10;99.90;;;;;;5043667;28;20217;-89
2021/11/24 06:39:44;;;;;;;51.53;30.57;;;-0.20;99.90;;;;;;5034560;28;20176;-91
2021/11/24 06:42:10;;;;;;;51.63;31.13;;;-0.20;99.90;;;;;;5028167;28;20206;-91
2021/11/24 06:44:36;;;;;;;90.83;54.10;;;-0.20;99.90;;;;;;5057941;28;20399;-90
2021/11/24 06:47:02;;;;;;;71.83;45.90;;;-0.20;99.90;;;;;;5043279;28;20504;-90
2021/11/24 06:49:28;;;;;;;59.95;39.70;;;-0.20;99.90;;;;;;5053945;28;20173;-90
2021/11/24 06:51:53;;;;;;;47.50;32.83;;;-0.20;99.90;;;;;;5035305;28;20280;-89
2021/11/24 06:54:19;;;;;;;44.97;26.20;;;-0.20;99.90;;;;;;5035556;28;20212;-89
2021/11/24 06:56:46;;;;;;;42.63;27.10;;;-0.20;99.90;;;;;;5035998;28;20480;-89
2021/11/24 06:59:12;;;;;;;43.85;26.70;;;0.00;99.90;;;;;;5039500;28;20181;-90
2021/11/24 07:01:38;;;;;;;47.03;33.87;;;0.20;99.90;;;;;;5035116;28;20430;-89
2021/11/24 07:04:07;;;;;;;47.65;34.13;;;0.30;99.90;;;;;;5035629;28;20186;-89
2021/11/24 07:06:33;;;;;;;47.38;30.80;;;0.40;99.90;;;;;;5053961;28;20198;-88
2021/11/24 07:08:59;;;;;;;52.63;36.38;;;0.50;99.90;;;;;;5029477;28;20186;-89
2021/11/24 07:11:28;;;;;;;61.13;39.07;;;0.50;99.90;;;;;;5019682;28;20230;-90
2021/11/24 07:13:54;;;;;;;71.53;38.45;;;0.60;99.90;;;;;;5024682;28;20413;-89
2021/11/24 07:16:20;;;;;;;66.60;40.27;;;0.60;99.90;;;;;;5040982;28;20198;-90
2021/11/24 07:18:45;;;;;;;112.07;54.70;;;0.70;99.90;;;;;;5017170;28;20467;-90
2021/11/24 07:21:12;;;;;;;124.70;55.90;;;0.90;99.90;;;;;;5046210;28;20438;-89
2021/11/24 07:23:38;;;;;;;121.53;54.72;;;1.10;99.90;;;;;;5034186;28;20474;-90
2021/11/24 07:26:03;;;;;;;121.07;58.13;;;1.40;99.90;;;;;;5032386;28;20521;-91
2021/11/24 07:28:29;;;;;;;117.53;57.23;;;1.80;99.90;;;;;;5033080;28;20636;-91
2021/11/24 07:30:55;;;;;;;105.93;55.50;;;2.30;99.90;;;;;;5047975;28;20182;-92
2021/11/24 07:33:20;;;;;;;80.60;44.00;;;2.70;99.90;;;;;;5029518;28;20185;-91
2021/11/24 07:35:46;;;;;;;44.20;29.30;;;3.20;99.90;;;;;;5050377;28;20174;-91
2021/11/24 07:38:12;;;;;;;46.00;29.00;;;3.90;99.90;;;;;;5030442;28;20205;-91
2021/11/24 07:40:39;;;;;;;39.80;26.07;;;4.50;99.90;;;;;;5026051;28;20273;-90
2021/11/24 07:43:05;;;;;;;52.60;34.15;;;5.10;99.90;;;;;;5016938;28;20202;-92
2021/11/24 07:45:31;;;;;;;48.40;32.13;;;5.70;99.90;;;;;;5050891;28;20204;-89
2021/11/24 07:47:57;;;;;;;41.33;25.33;;;6.30;99.90;;;;;;5050045;28;20595;-91
2021/11/24 07:50:23;;;;;;;36.70;26.57;;;7.00;99.90;;;;;;5051602;28;20385;-91
2021/11/24 07:52:49;;;;;;;38.33;28.30;;;7.80;99.90;;;;;;5041810;28;20555;-91
2021/11/24 07:55:15;;;;;;;62.67;35.97;;;8.40;99.90;;;;;;5042468;28;20173;-92
2021/11/24 07:57:41;;;;;;;78.22;41.15;;;9.00;99.90;;;;;;5046402;28;20230;-91
2021/11/24 08:00:08;;;;;;;80.27;45.53;;;9.40;99.90;;;;;;5041538;28;20220;-93
2021/11/24 08:02:33;;;;;;;55.95;35.05;;;9.60;99.90;;;;;;5032004;28;20478;-93
2021/11/24 08:04:59;;;;;;;53.83;36.27;;;9.90;99.90;;;;;;5026710;28;20211;-92
2021/11/24 08:07:25;;;;;;;37.13;27.43;;;10.30;99.90;;;;;;5021372;28;20206;-92
2021/11/24 08:09:51;;;;;;;37.30;27.70;;;10.50;99.90;;;;;;5030075;28;20662;-95
2021/11/24 08:12:17;;;;;;;36.60;25.45;;;10.70;99.90;;;;;;5034217;28;20232;-94
2021/11/24 08:14:43;;;;;;;50.38;38.97;;;10.70;99.90;;;;;;5022209;28;20497;-93
2021/11/24 08:17:09;;;;;;;27.45;20.52;;;10.80;99.90;;;;;;5024801;28;20260;-93
2021/11/24 08:19:35;;;;;;;51.07;24.90;;;11.00;99.90;;;;;;5033458;28;20233;-96
2021/11/24 08:22:01;;;;;;;84.67;28.37;;;11.40;99.90;;;;;;5019448;28;20773;-96
2021/11/24 08:24:28;;;;;;;28.00;21.90;;;12.00;99.90;;;;;;5023356;28;20752;-96
2021/11/24 08:26:55;;;;;;;26.83;22.33;;;12.50;99.90;;;;;;5033253;28;20464;-95
2021/11/24 08:29:21;;;;;;;30.05;22.65;;;12.80;99.90;;;;;;5019459;28;20189;-96
2021/11/24 08:31:47;;;;;;;30.40;24.60;;;13.10;99.90;;;;;;5024955;28;20229;-96
2021/11/24 08:34:13;;;;;;;32.17;22.80;;;13.40;99.90;;;;;;5019834;28;20627;-95
2021/11/24 08:36:39;;;;;;;31.80;23.70;;;13.70;99.50;;;;;;5035953;28;20213;-96
2021/11/24 08:39:06;;;;;;;27.27;21.70;;;13.90;99.10;;;;;;5031865;28;20178;-96
2021/11/24 08:41:32;;;;;;;23.40;19.00;;;14.00;98.80;;;;;;5044861;28;20224;-96
2021/11/24 08:43:58;;;;;;;26.93;19.23;;;14.10;98.00;;;;;;5024820;28;20277;-95
2021/11/24 08:46:24;;;;;;;31.52;25.40;;;14.00;97.70;;;;;;5030725;28;20439;-94
2021/11/24 08:48:50;;;;;;;34.37;25.43;;;13.90;97.70;;;;;;5032534;28;20185;-92
2021/11/24 08:51:16;;;;;;;21.03;18.63;;;13.80;97.50;;;;;;5040137;28;20471;-96
2021/11/24 08:53:42;;;;;;;21.55;18.27;;;13.70;96.90;;;;;;5031325;28;20181;-96
2021/11/24 08:56:14;;;;;;;25.57;19.23;;;13.70;97.00;;;;;;5044167;28;20214;-96
2021/11/24 08:58:40;;;;;;;26.53;20.80;;;13.60;97.10;;;;;;5024730;28;20441;-96
2021/11/24 09:01:07;;;;;;;39.00;25.47;;;13.70;96.80;;;;;;5028907;28;20427;-96
2021/11/24 09:03:35;;;;;;;32.05;24.60;;;13.80;96.40;;;;;;5031412;28;20385;-96
2021/11/24 09:06:03;;;;;;;22.70;18.67;;;14.20;96.80;;;;;;5046186;28;20185;-94
2021/11/24 09:08:30;;;;;;;22.80;18.00;;;14.60;95.70;;;;;;5030562;28;20455;-96
2021/11/24 09:10:56;;;;;;;22.80;18.70;;;14.60;94.80;;;;;;5034044;28;20407;-96
2021/11/24 09:13:23;;;;;;;23.77;17.47;;;14.60;94.50;;;;;;5034769;28;20696;-96
2021/11/24 09:15:49;;;;;;;21.63;19.25;;;14.50;95.00;;;;;;5021704;28;20458;-96
2021/11/24 09:18:15;;;;;;;25.10;19.67;;;14.30;94.90;;;;;;5030020;28;20179;-96
2021/11/24 09:20:44;;;;;;;19.13;16.73;;;14.30;95.90;;;;;;5025204;28;20936;-95
2021/11/24 09:23:11;;;;;;;21.53;17.27;;;14.30;94.90;;;;;;5021445;28;20459;-96
2021/11/24 09:26:02;;;;;;;21.43;17.30;;;14.50;94.50;;;;;;5025419;28;20417;-96
2021/11/24 09:28:34;;;;;;;19.77;16.20;;;14.90;93.20;;;;;;5034109;28;20406;-98
2021/11/24 09:31:02;;;;;;;20.07;15.90;;;15.30;92.30;;;;;;5039044;28;20431;-94
2021/11/24 09:33:28;;;;;;;18.73;14.23;;;15.50;91.80;;;;;;5028630;28;20473;-94
2021/11/24 09:36:01;;;;;;;21.17;16.73;;;15.70;91.60;;;;;;5030202;28;20430;-97
2021/11/24 09:38:27;;;;;;;16.20;14.00;;;15.90;91.20;;;;;;5026694;28;20397;-96
2021/11/24 09:40:55;;;;;;;17.87;15.07;;;15.90;90.60;;;;;;5026149;28;20414;-96
2021/11/24 09:43:23;;;;;;;17.10;15.00;;;15.70;90.40;;;;;;5019046;28;20402;-96
2021/11/24 09:45:49;;;;;;;19.20;15.47;;;15.40;90.30;;;;;;5046399;28;21035;-95
2021/11/24 09:48:29;;;;;;;20.83;15.03;;;15.30;90.70;;;;;;5037051;28;20483;-95
2021/11/24 09:50:57;;;;;;;20.53;15.93;;;15.10;90.50;;;;;;5041809;28;20191;-97
2021/11/24 09:53:30;;;;;;;18.33;14.00;;;14.80;91.20;;;;;;5023342;28;20451;-96
2021/11/24 09:55:58;;;;;;;30.40;20.43;;;14.40;90.70;;;;;;5022370;28;20434;-93
2021/11/24 09:58:27;;;;;;;18.48;15.30;;;13.80;91.30;;;;;;5013045;28;20402;-96
2021/11/24 10:00:52;;;;;;;28.08;21.27;;;13.50;91.70;;;;;;5022152;28;20223;-94
2021/11/24 10:03:19;;;;;;;31.50;24.00;;;13.20;93.10;;;;;;5006695;28;20226;-94
2021/11/24 10:05:47;;;;;;;23.98;19.25;;;12.80;92.80;;;;;;5024740;28;20421;-96
2021/11/24 10:08:13;;;;;;;21.40;15.95;;;12.70;93.10;;;;;;5022715;28;20221;-93
2021/11/24 10:10:45;;;;;;;18.73;16.73;;;12.40;93.30;;;;;;5019540;28;20390;-94
2021/11/24 10:13:13;;;;;;;23.55;16.75;;;12.30;93.50;;;;;;5019160;28;20713;-96
2021/11/24 10:15:47;;;;;;;23.67;17.88;;;12.10;94.00;;;;;;5014387;28;20194;-96
2021/11/24 10:18:29;;;;;;;24.95;17.70;;;11.90;94.70;;;;;;5011071;28;20229;-95
2021/11/24 10:21:02;;;;;;;21.90;17.15;;;11.80;94.60;;;;;;4982429;28;20211;-96
2021/11/24 10:23:32;;;;;;;34.20;23.25;;;11.60;94.70;;;;;;5013122;28;20174;-96
2021/11/24 10:26:15;;;;;;;21.98;16.58;;;11.50;95.60;;;;;;5011179;28;20211;-96
2021/11/24 10:28:55;;;;;;;22.23;18.20;;;11.30;94.80;;;;;;4997411;28;20712;-96
2021/11/24 10:31:32;;;;;;;22.08;16.73;;;11.10;95.30;;;;;;5009358;28;20226;-96
2021/11/24 10:34:00;;;;;;;26.50;20.20;;;10.90;95.70;;;;;;5013469;28;20175;-96
2021/11/24 10:36:30;;;;;;;29.33;20.83;;;10.70;96.10;;;;;;5015934;28;20278;-96
2021/11/24 10:38:57;;;;;;;20.58;16.60;;;10.60;96.40;;;;;;5021827;28;20205;-96
2021/11/24 10:41:38;;;;;;;23.88;17.27;;;10.50;97.20;;;;;;5012162;28;20333;-93
2021/11/24 10:44:06;;;;;;;42.08;26.48;;;10.40;96.80;;;;;;5012621;28;20411;-95
2021/11/24 10:46:39;;;;;;;22.90;16.45;;;10.30;97.30;;;;;;5004033;28;20257;-96
2021/11/24 10:49:13;;;;;;;21.80;16.80;;;10.20;97.60;;;;;;5006435;28;20176;-96
2021/11/24 10:51:43;;;;;;;26.35;18.77;;;10.10;97.60;;;;;;5011797;28;20317;-96
2021/11/24 10:54:16;;;;;;;28.70;21.25;;;10.10;98.20;;;;;;5012867;28;20187;-93
2021/11/24 10:57:11;;;;;;;28.13;20.38;;;10.00;98.40;;;;;;5000384;28;20230;-94
2021/11/24 10:59:46;;;;;;;20.63;15.45;;;10.00;98.70;;;;;;5021583;28;20190;-96
2021/11/24 11:02:29;;;;;;;24.67;17.95;;;10.00;98.50;;;;;;5025381;28;20209;-96
2021/11/24 11:05:08;;;;;;;25.90;18.23;;;9.90;98.50;;;;;;5005461;28;20536;-96
2021/11/24 11:07:56;;;;;;;31.83;22.27;;;9.90;98.70;;;;;;5018030;28;20217;-96
2021/11/24 11:13:11;;;;;;;30.25;20.85;;;9.70;99.00;;;;;;4991602;28;20246;-72
2021/11/24 11:15:55;;;;;;;33.58;19.30;;;9.70;99.20;;;;;;4975988;28;20681;-71
2021/11/24 11:18:25;;;;;;;29.33;21.50;;;9.60;99.50;;;;;;4975918;28;20191;-72
2021/11/24 11:21:19;;;;;;;30.02;21.25;;;9.60;99.40;;;;;;4974894;28;20244;-70
2021/11/24 11:23:48;;;;;;;35.85;25.60;;;9.60;99.70;;;;;;4966180;28;20291;-68
2021/11/24 11:26:17;;;;;;;32.53;22.60;;;9.60;99.90;;;;;;4970154;28;20219;-72
2021/11/24 11:28:51;;;;;;;28.65;19.35;;;9.70;99.80;;;;;;4969375;28;20187;-72
2021/11/24 11:31:22;;;;;;;34.13;23.98;;;9.80;99.50;;;;;;4984986;28;20692;-72
2021/11/24 11:33:56;;;;;;;25.30;19.40;;;9.90;99.50;;;;;;4962480;28;20267;-68
2021/11/24 11:36:27;;;;;;;30.45;21.70;;;10.00;99.30;;;;;;4989390;28;20288;-72
2021/11/24 11:38:58;;;;;;;34.65;21.65;;;10.00;99.90;;;;;;4948909;28;20189;-68
2021/11/24 11:41:34;;;;;;;30.77;19.60;;;9.90;99.30;;;;;;4979394;28;20188;-68
2021/11/24 11:44:02;;;;;;;24.73;17.05;;;9.90;99.50;;;;;;4960998;28;20175;-73
2021/11/24 11:46:43;;;;;;;32.92;21.88;;;9.90;99.50;;;;;;4964919;28;20180;-68
2021/11/24 11:49:15;;;;;;;28.80;19.63;;;9.90;99.80;;;;;;4964845;28;20673;-68
2021/11/24 11:51:44;;;;;;;27.33;18.23;;;9.90;99.70;;;;;;4971525;28;20263;-73
2021/11/24 11:54:13;;;;;;;23.35;17.52;;;9.90;99.80;;;;;;4966172;28;20232;-72
2021/11/24 11:56:46;;;;;;;25.70;17.33;;;9.90;99.90;;;;;;4988010;28;20757;-68
2021/11/24 11:59:22;;;;;;;25.02;16.35;;;10.00;99.90;;;;;;4970780;28;20573;-72
2021/11/24 12:01:51;;;;;;;24.92;17.73;;;9.90;99.80;;;;;;4974268;28;20555;-71
2021/11/24 12:04:21;;;;;;;28.10;18.23;;;10.00;99.90;;;;;;4971062;28;20200;-72
2021/11/24 12:06:52;;;;;;;22.58;16.90;;;10.00;99.90;;;;;;4966828;28;20518;-72
2021/11/24 12:09:54;;;;;;;27.00;19.35;;;10.00;99.90;;;;;;4984753;28;20243;-71
2021/11/24 12:12:34;;;;;;;24.58;17.17;;;10.10;99.90;;;;;;4963103;28;20243;-71
2021/11/24 12:15:18;;;;;;;24.25;18.30;;;10.10;99.90;;;;;;4965198;28;20203;-71
2021/11/24 12:17:50;;;;;;;24.50;17.17;;;10.00;99.90;;;;;;4958392;28;20231;-72
2021/11/24 12:20:16;;;;;;;26.10;18.10;;;9.90;99.90;;;;;;4960683;28;20937;-72
2021/11/24 12:22:56;;;;;;;25.63;19.23;;;9.90;99.90;;;;;;4948677;28;20710;-68
2021/11/24 12:27:53;;;;;;;27.13;17.95;;;9.80;99.90;;;;;;4976120;28;20242;-68
2021/11/24 12:30:34;;;;;;;24.58;18.00;;;9.70;99.90;;;;;;4965314;28;20212;-72
2021/11/24 12:33:09;;;;;;;23.63;17.02;;;9.70;99.90;;;;;;4982647;28;20282;-72
2021/11/24 12:35:40;;;;;;;27.13;18.42;;;9.80;99.90;;;;;;4973878;28;20203;-72
2021/11/24 12:38:33;;;;;;;27.65;17.10;;;9.80;99.90;;;;;;4975376;28;20215;-72
2021/11/24 12:41:06;;;;;;;43.53;24.48;;;9.70;99.90;;;;;;4965845;28;20486;-68
2021/11/24 12:43:37;;;;;;;27.23;17.55;;;9.70;99.90;;;;;;4973085;28;20548;-68